Time,TemperatureF,DewpointF,PressureIn,WindDirection,WindDirectionDegrees,WindSpeedMPH,WindSpeedGustMPH,Humidity,HourlyPrecipIn,Conditions,Clouds,dailyrainin,SoftwareType,DateUTC
2013-01-24 00:04:00,-0.8,-13.5,30.50,East,90,0.0,0.0,54,0.00,,,0.00,WUHU21636XXSP,2013-01-24 06:04:00,
2013-01-24 00:09:00,-1.1,-14.1,30.50,East,90,0.0,0.0,53,0.00,,,0.00,WUHU21636XXSP,2013-01-24 06:09:00,
2013-01-24 00:14:00,-1.1,-13.7,30.51,East,90,0.0,0.0,54,0.00,,,0.00,WUHU21636XXSP,2013-01-24 06:14:00,
2013-01-24 00:19:00,-1.1,-13.7,30.51,East,90,0.0,0.0,54,0.00,,,0.00,WUHU21636XXSP,2013-01-24 06:19:00,
2013-01-24 00:24:00,-1.1,-14.1,30.52,East,90,0.0,0.0,53,0.00,,,0.00,WUHU21636XXSP,2013-01-24 06:24:00,
2013-01-24 00:29:00,-1.3,-14.3,30.52,East,90,0.0,0.0,53,0.00,,,0.00,WUHU21636XXSP,2013-01-24 06:29:00,
2013-01-24 00:34:00,-1.4,-14.4,30.52,East,90,0.0,0.0,53,0.00,,,0.00,WUHU21636XXSP,2013-01-24 06:34:00,
2013-01-24 00:39:00,-1.4,-14.0,30.52,East,90,0.0,0.0,54,0.00,,,0.00,WUHU21636XXSP,2013-01-24 06:39:00,
2013-01-24 00:44:00,-1.4,-14.0,30.52,East,90,0.0,0.0,54,0.00,,,0.00,WUHU21636XXSP,2013-01-24 06:44:00,
2013-01-24 00:49:00,-1.6,-14.2,30.52,East,90,0.0,0.0,54,0.00,,,0.00,WUHU21636XXSP,2013-01-24 06:49:00,
2013-01-24 00:54:00,-1.6,-13.8,30.53,East,90,0.0,0.0,55,0.00,,,0.00,WUHU21636XXSP,2013-01-24 06:54:00,
2013-01-24 00:59:00,-2.0,-14.2,30.53,East,90,0.0,0.0,55,0.00,,,0.00,WUHU21636XXSP,2013-01-24 06:59:00,
2013-01-24 01:04:00,-2.0,-14.2,30.53,East,90,0.0,0.0,55,0.00,,,0.00,WUHU21636XXSP,2013-01-24 07:04:00,
2013-01-24 01:09:00,-2.0,-14.6,30.53,East,90,0.0,0.0,54,0.00,,,0.00,WUHU21636XXSP,2013-01-24 07:09:00,
2013-01-24 01:14:00,-2.2,-14.4,30.53,East,90,0.0,0.0,55,0.00,,,0.00,WUHU21636XXSP,2013-01-24 07:14:00,
2013-01-24 01:19:00,-2.2,-14.4,30.54,East,90,0.0,0.0,55,0.00,,,0.00,WUHU21636XXSP,2013-01-24 07:19:00,
2013-01-24 01:24:00,-2.2,-14.4,30.54,ESE,112,0.0,0.0,55,0.00,,,0.00,WUHU21636XXSP,2013-01-24 07:24:00,
2013-01-24 01:29:00,-2.2,-14.4,30.54,ESE,112,0.0,0.0,55,0.00,,,0.00,WUHU21636XXSP,2013-01-24 07:29:00,
2013-01-24 01:34:00,-2.2,-14.0,30.54,ESE,112,0.0,0.0,56,0.00,,,0.00,WUHU21636XXSP,2013-01-24 07:34:00,
2013-01-24 01:39:00,-2.2,-13.7,30.53,ESE,112,0.0,0.0,57,0.00,,,0.00,WUHU21636XXSP,2013-01-24 07:39:00,
2013-01-24 01:44:00,-2.2,-13.7,30.53,ESE,112,0.0,0.0,57,0.00,,,0.00,WUHU21636XXSP,2013-01-24 07:44:00,
2013-01-24 01:49:00,-2.2,-14.4,30.54,ESE,112,0.0,0.0,55,0.00,,,0.00,WUHU21636XXSP,2013-01-24 07:49:00,
2013-01-24 01:55:00,-2.3,-14.5,30.54,ESE,112,0.0,0.0,55,0.00,,,0.00,WUHU21636XXSP,2013-01-24 07:55:00,
2013-01-24 02:00:00,-2.2,-13.0,30.54,ESE,112,0.0,0.0,59,0.00,,,0.00,WUHU21636XXSP,2013-01-24 08:00:00,
2013-01-24 02:05:00,-2.2,-13.3,30.55,ESE,112,0.0,0.0,58,0.00,,,0.00,WUHU21636XXSP,2013-01-24 08:05:00,
2013-01-24 02:10:00,-2.5,-14.0,30.55,ESE,112,0.0,0.0,57,0.00,,,0.00,WUHU21636XXSP,2013-01-24 08:10:00,
2013-01-24 02:15:00,-2.5,-13.6,30.55,ESE,112,0.0,0.0,58,0.00,,,0.00,WUHU21636XXSP,2013-01-24 08:15:00,
2013-01-24 02:20:00,-2.2,-13.7,30.56,ESE,112,0.0,0.0,57,0.00,,,0.00,WUHU21636XXSP,2013-01-24 08:20:00,
2013-01-24 02:25:00,-2.5,-14.3,30.56,ESE,112,0.0,0.0,56,0.00,,,0.00,WUHU21636XXSP,2013-01-24 08:25:00,
2013-01-24 02:30:00,-2.7,-14.9,30.56,SE,135,0.0,0.0,55,0.00,,,0.00,WUHU21636XXSP,2013-01-24 08:30:00,
2013-01-24 02:35:00,-2.7,-14.5,30.57,SE,135,0.0,0.0,56,0.00,,,0.00,WUHU21636XXSP,2013-01-24 08:35:00,
2013-01-24 02:40:00,-2.7,-14.2,30.57,SE,135,0.0,0.0,57,0.00,,,0.00,WUHU21636XXSP,2013-01-24 08:40:00,
2013-01-24 02:45:00,-2.5,-14.0,30.57,SE,135,0.0,0.0,57,0.00,,,0.00,WUHU21636XXSP,2013-01-24 08:45:00,
2013-01-24 02:50:00,-2.5,-14.0,30.57,SE,135,0.0,0.0,57,0.00,,,0.00,WUHU21636XXSP,2013-01-24 08:50:00,
2013-01-24 02:55:00,-2.5,-14.3,30.57,SE,135,0.0,0.0,56,0.00,,,0.00,WUHU21636XXSP,2013-01-24 08:55:00,
2013-01-24 03:00:00,-2.7,-14.5,30.58,SE,135,0.0,0.0,56,0.00,,,0.00,WUHU21636XXSP,2013-01-24 09:00:00,
2013-01-24 03:05:00,-2.7,-14.5,30.58,SE,135,0.0,0.0,56,0.00,,,0.00,WUHU21636XXSP,2013-01-24 09:05:00,
2013-01-24 03:10:00,-2.9,-14.4,30.58,SE,135,0.0,0.0,57,0.00,,,0.00,WUHU21636XXSP,2013-01-24 09:10:00,
2013-01-24 03:15:00,-2.9,-14.4,30.58,SE,135,0.0,0.0,57,0.00,,,0.00,WUHU21636XXSP,2013-01-24 09:15:00,
2013-01-24 03:20:00,-2.9,-14.4,30.58,SE,135,0.0,0.0,57,0.00,,,0.00,WUHU21636XXSP,2013-01-24 09:20:00,
2013-01-24 03:25:00,-2.9,-14.4,30.58,SE,135,0.0,0.0,57,0.00,,,0.00,WUHU21636XXSP,2013-01-24 09:25:00,
2013-01-24 03:30:00,-3.2,-14.9,30.58,SE,135,0.0,0.0,56,0.00,,,0.00,WUHU21636XXSP,2013-01-24 09:30:00,
2013-01-24 03:35:00,-3.2,-14.6,30.59,SE,135,0.0,0.0,57,0.00,,,0.00,WUHU21636XXSP,2013-01-24 09:35:00,
2013-01-24 03:40:00,-2.9,-14.4,30.59,SE,135,0.0,0.0,57,0.00,,,0.00,WUHU21636XXSP,2013-01-24 09:40:00,
2013-01-24 03:45:00,-2.9,-14.0,30.59,SE,135,0.0,0.0,58,0.00,,,0.00,WUHU21636XXSP,2013-01-24 09:45:00,
2013-01-24 03:50:00,-2.9,-14.4,30.60,SE,135,0.0,0.0,57,0.00,,,0.00,WUHU21636XXSP,2013-01-24 09:50:00,
2013-01-24 03:56:00,-2.9,-14.4,30.59,SE,135,0.0,0.0,57,0.00,,,0.00,WUHU21636XXSP,2013-01-24 09:56:00,
2013-01-24 04:01:00,-2.9,-14.0,30.60,SE,135,0.0,0.0,58,0.00,,,0.00,WUHU21636XXSP,2013-01-24 10:01:00,
2013-01-24 04:06:00,-2.9,-14.0,30.60,SE,135,0.0,0.0,58,0.00,,,0.00,WUHU21636XXSP,2013-01-24 10:06:00,
2013-01-24 04:11:00,-2.9,-14.0,30.60,SE,135,0.0,0.0,58,0.00,,,0.00,WUHU21636XXSP,2013-01-24 10:11:00,
2013-01-24 04:16:00,-3.2,-14.2,30.60,SE,135,0.0,0.0,58,0.00,,,0.00,WUHU21636XXSP,2013-01-24 10:16:00,
2013-01-24 04:21:00,-3.2,-14.2,30.61,SE,135,0.0,0.0,58,0.00,,,0.00,WUHU21636XXSP,2013-01-24 10:21:00,
2013-01-24 04:26:00,-3.2,-13.9,30.61,SE,135,0.0,0.0,59,0.00,,,0.00,WUHU21636XXSP,2013-01-24 10:26:00,
2013-01-24 04:31:00,-2.9,-13.3,30.61,SE,135,0.0,0.0,60,0.00,,,0.00,WUHU21636XXSP,2013-01-24 10:31:00,
2013-01-24 04:36:00,-2.9,-13.7,30.62,SE,135,0.0,0.0,59,0.00,,,0.00,WUHU21636XXSP,2013-01-24 10:36:00,
2013-01-24 04:41:00,-2.9,-14.0,30.61,SE,135,0.0,0.0,58,0.00,,,0.00,WUHU21636XXSP,2013-01-24 10:41:00,
2013-01-24 04:46:00,-2.9,-14.0,30.62,SE,135,0.0,0.0,58,0.00,,,0.00,WUHU21636XXSP,2013-01-24 10:46:00,
2013-01-24 04:51:00,-3.2,-13.5,30.62,SE,135,0.0,0.0,60,0.00,,,0.00,WUHU21636XXSP,2013-01-24 10:51:00,
2013-01-24 04:56:00,-3.2,-13.5,30.61,SE,135,0.0,0.0,60,0.00,,,0.00,WUHU21636XXSP,2013-01-24 10:56:00,
2013-01-24 05:01:00,-3.2,-13.5,30.61,SE,135,0.0,0.0,60,0.00,,,0.00,WUHU21636XXSP,2013-01-24 11:01:00,
2013-01-24 05:06:00,-3.2,-14.2,30.60,SE,135,0.0,0.0,58,0.00,,,0.00,WUHU21636XXSP,2013-01-24 11:06:00,
2013-01-24 05:11:00,-3.2,-13.9,30.61,SE,135,0.0,0.0,59,0.00,,,0.00,WUHU21636XXSP,2013-01-24 11:11:00,
2013-01-24 05:16:00,-3.2,-13.2,30.61,SE,135,0.0,0.0,61,0.00,,,0.00,WUHU21636XXSP,2013-01-24 11:16:00,
2013-01-24 05:21:00,-3.2,-13.2,30.62,SE,135,0.0,0.0,61,0.00,,,0.00,WUHU21636XXSP,2013-01-24 11:21:00,
2013-01-24 05:26:00,-3.2,-13.2,30.62,SE,135,0.0,0.0,61,0.00,,,0.00,WUHU21636XXSP,2013-01-24 11:26:00,
2013-01-24 05:31:00,-3.2,-13.9,30.61,SE,135,0.0,0.0,59,0.00,,,0.00,WUHU21636XXSP,2013-01-24 11:31:00,
2013-01-24 05:36:00,-3.3,-13.0,30.61,SE,135,0.0,0.0,62,0.00,,,0.00,WUHU21636XXSP,2013-01-24 11:36:00,
2013-01-24 05:41:00,-3.5,-13.8,30.60,SE,135,0.0,0.0,60,0.00,,,0.00,WUHU21636XXSP,2013-01-24 11:41:00,
2013-01-24 05:46:00,-3.7,-13.7,30.60,SE,135,0.0,0.0,61,0.00,,,0.00,WUHU21636XXSP,2013-01-24 11:46:00,
2013-01-24 05:51:00,-3.5,-12.9,30.61,SE,135,0.0,0.0,63,0.00,,,0.00,WUHU21636XXSP,2013-01-24 11:51:00,
2013-01-24 05:56:00,-3.5,-12.9,30.60,SE,135,0.0,0.0,63,0.00,,,0.00,WUHU21636XXSP,2013-01-24 11:56:00,
2013-01-24 06:01:00,-3.2,-12.6,30.60,SE,135,0.0,0.0,63,0.00,,,0.00,WUHU21636XXSP,2013-01-24 12:01:00,
2013-01-24 06:06:00,-3.2,-12.9,30.61,SE,135,0.0,0.0,62,0.00,,,0.00,WUHU21636XXSP,2013-01-24 12:06:00,
2013-01-24 06:11:00,-3.2,-12.9,30.61,SE,135,0.0,0.0,62,0.00,,,0.00,WUHU21636XXSP,2013-01-24 12:11:00,
2013-01-24 06:16:00,-3.2,-12.9,30.60,SE,135,0.0,0.0,62,0.00,,,0.00,WUHU21636XXSP,2013-01-24 12:16:00,
2013-01-24 06:21:00,-3.2,-12.9,30.61,SE,135,0.0,0.0,62,0.00,,,0.00,WUHU21636XXSP,2013-01-24 12:21:00,
2013-01-24 06:26:00,-3.2,-12.6,30.61,SE,135,0.0,0.0,63,0.00,,,0.00,WUHU21636XXSP,2013-01-24 12:26:00,
2013-01-24 06:31:00,-2.9,-12.0,30.60,SE,135,0.0,0.0,64,0.00,,,0.00,WUHU21636XXSP,2013-01-24 12:31:00,
2013-01-24 06:36:00,-2.9,-12.0,30.61,ESE,112,0.0,0.0,64,0.00,,,0.00,WUHU21636XXSP,2013-01-24 12:36:00,
2013-01-24 06:41:00,-2.9,-12.7,30.61,ESE,112,0.0,0.0,62,0.00,,,0.00,WUHU21636XXSP,2013-01-24 12:41:00,
2013-01-24 06:46:00,-2.7,-12.5,30.60,ESE,112,0.0,0.0,62,0.00,,,0.00,WUHU21636XXSP,2013-01-24 12:46:00,
2013-01-24 06:51:00,-2.7,-12.2,30.60,ESE,112,0.0,0.0,63,0.00,,,0.00,WUHU21636XXSP,2013-01-24 12:51:00,
2013-01-24 06:56:00,-2.7,-12.2,30.61,ESE,112,0.0,0.0,63,0.00,,,0.00,WUHU21636XXSP,2013-01-24 12:56:00,
2013-01-24 07:01:00,-2.7,-12.5,30.61,ESE,112,0.0,0.0,62,0.00,,,0.00,WUHU21636XXSP,2013-01-24 13:01:00,
2013-01-24 07:06:00,-2.7,-11.8,30.61,ESE,112,0.0,0.0,64,0.00,,,0.00,WUHU21636XXSP,2013-01-24 13:06:00,
2013-01-24 07:11:00,-2.7,-11.8,30.62,ESE,112,0.0,0.0,64,0.00,,,0.00,WUHU21636XXSP,2013-01-24 13:11:00,
2013-01-24 07:16:00,-2.7,-12.2,30.61,ESE,112,0.0,0.0,63,0.00,,,0.00,WUHU21636XXSP,2013-01-24 13:16:00,
2013-01-24 07:21:00,-2.5,-12.3,30.62,ESE,112,0.0,0.0,62,0.00,,,0.00,WUHU21636XXSP,2013-01-24 13:21:00,
2013-01-24 07:26:00,-2.7,-12.5,30.63,ESE,112,0.0,0.0,62,0.00,,,0.00,WUHU21636XXSP,2013-01-24 13:26:00,
2013-01-24 07:31:00,-2.7,-12.5,30.63,ESE,112,0.0,0.0,62,0.00,,,0.00,WUHU21636XXSP,2013-01-24 13:31:00,
2013-01-24 07:36:00,-2.7,-12.2,30.63,ESE,112,0.0,0.0,63,0.00,,,0.00,WUHU21636XXSP,2013-01-24 13:36:00,
2013-01-24 07:41:00,-2.7,-12.8,30.63,ESE,112,0.0,0.0,61,0.00,,,0.00,WUHU21636XXSP,2013-01-24 13:41:00,
2013-01-24 07:46:00,-2.7,-12.5,30.62,ESE,112,0.0,0.0,62,0.00,,,0.00,WUHU21636XXSP,2013-01-24 13:46:00,
2013-01-24 07:51:00,-2.5,-12.3,30.62,ESE,112,0.0,0.0,62,0.00,,,0.00,WUHU21636XXSP,2013-01-24 13:51:00,
2013-01-24 07:56:00,-2.5,-12.3,30.62,ESE,112,0.0,0.0,62,0.00,,,0.00,WUHU21636XXSP,2013-01-24 13:56:00,
2013-01-24 08:01:00,-2.5,-12.9,30.62,ESE,112,0.0,0.0,60,0.00,,,0.00,WUHU21636XXSP,2013-01-24 14:01:00,
2013-01-24 08:06:00,-2.2,-12.0,30.62,East,90,0.0,0.0,62,0.00,,,0.00,WUHU21636XXSP,2013-01-24 14:06:00,
2013-01-24 08:11:00,-2.2,-12.6,30.63,East,90,0.0,0.0,60,0.00,,,0.00,WUHU21636XXSP,2013-01-24 14:11:00,
2013-01-24 08:16:00,-2.2,-12.3,30.63,East,90,0.0,0.0,61,0.00,,,0.00,WUHU21636XXSP,2013-01-24 14:16:00,
2013-01-24 08:21:00,-2.2,-12.0,30.63,East,90,0.0,0.0,62,0.00,,,0.00,WUHU21636XXSP,2013-01-24 14:21:00,
2013-01-24 08:26:00,-2.2,-12.6,30.63,East,90,0.0,0.0,60,0.00,,,0.00,WUHU21636XXSP,2013-01-24 14:26:00,
2013-01-24 08:31:00,-2.2,-12.6,30.63,East,90,0.0,0.0,60,0.00,,,0.00,WUHU21636XXSP,2013-01-24 14:31:00,
2013-01-24 08:36:00,-2.0,-12.1,30.63,East,90,0.0,0.0,61,0.00,,,0.00,WUHU21636XXSP,2013-01-24 14:36:00,
2013-01-24 08:41:00,-1.6,-11.7,30.63,East,90,0.0,0.0,61,0.00,,,0.00,WUHU21636XXSP,2013-01-24 14:41:00,
2013-01-24 08:46:00,-1.3,-11.4,30.63,East,90,0.0,0.0,61,0.00,,,0.00,WUHU21636XXSP,2013-01-24 14:46:00,
2013-01-24 08:51:00,-1.1,-11.9,30.63,East,90,0.0,0.0,59,0.00,,,0.00,WUHU21636XXSP,2013-01-24 14:51:00,
2013-01-24 08:56:00,-1.3,-12.1,30.63,East,90,0.0,0.0,59,0.00,,,0.00,WUHU21636XXSP,2013-01-24 14:56:00,
2013-01-24 09:01:00,-1.1,-11.9,30.63,East,90,0.0,0.0,59,0.00,,,0.00,WUHU21636XXSP,2013-01-24 15:01:00,
2013-01-24 09:06:00,-0.3,-11.2,30.62,East,90,0.0,0.0,59,0.00,,,0.00,WUHU21636XXSP,2013-01-24 15:06:00,
2013-01-24 09:11:00,-0.3,-11.2,30.62,East,90,0.0,0.0,59,0.00,,,0.00,WUHU21636XXSP,2013-01-24 15:11:00,
2013-01-24 09:16:00,0.3,-10.6,30.62,East,90,0.0,0.0,59,0.00,,,0.00,WUHU21636XXSP,2013-01-24 15:16:00,
2013-01-24 09:22:00,0.5,-11.1,30.62,East,90,0.0,0.0,57,0.00,,,0.00,WUHU21636XXSP,2013-01-24 15:22:00,
2013-01-24 09:27:00,0.5,-11.1,30.62,East,90,0.0,0.0,57,0.00,,,0.00,WUHU21636XXSP,2013-01-24 15:27:00,
2013-01-24 09:32:00,0.6,-10.0,30.62,East,90,0.0,0.0,60,0.00,,,0.00,WUHU21636XXSP,2013-01-24 15:32:00,
2013-01-24 09:37:00,1.6,-9.4,30.62,East,90,0.0,0.0,59,0.00,,,0.00,WUHU21636XXSP,2013-01-24 15:37:00,
2013-01-24 09:43:00,1.8,-9.6,30.62,East,90,0.0,0.0,58,0.00,,,0.00,WUHU21636XXSP,2013-01-24 15:43:00,
2013-01-24 09:48:00,2.2,-9.2,30.62,East,90,0.0,0.0,58,0.00,,,0.00,WUHU21636XXSP,2013-01-24 15:48:00,
2013-01-24 09:53:00,2.5,-8.9,30.61,East,90,0.0,0.0,58,0.00,,,0.00,WUHU21636XXSP,2013-01-24 15:53:00,
2013-01-24 09:58:00,2.7,-8.7,30.61,East,90,0.0,0.0,58,0.00,,,0.00,WUHU21636XXSP,2013-01-24 15:58:00,
2013-01-24 10:04:00,2.9,-9.2,30.61,ESE,112,0.0,0.0,56,0.00,,,0.00,WUHU21636XXSP,2013-01-24 16:04:00,
2013-01-24 10:09:00,3.2,-8.6,30.61,SE,135,0.0,0.0,57,0.00,,,0.00,WUHU21636XXSP,2013-01-24 16:09:00,
2013-01-24 10:14:00,3.4,-8.8,30.61,ESE,112,0.0,0.0,56,0.00,,,0.00,WUHU21636XXSP,2013-01-24 16:14:00,
2013-01-24 10:19:00,3.4,-8.8,30.61,ESE,112,0.0,0.0,56,0.00,,,0.00,WUHU21636XXSP,2013-01-24 16:19:00,
2013-01-24 10:24:00,3.5,-8.3,30.60,ESE,112,0.0,0.0,57,0.00,,,0.00,WUHU21636XXSP,2013-01-24 16:24:00,
2013-01-24 10:29:00,4.1,-7.8,30.60,ESE,112,0.0,0.0,57,0.00,,,0.00,WUHU21636XXSP,2013-01-24 16:29:00,
2013-01-24 10:34:00,4.3,-7.9,30.60,ESE,112,0.0,0.0,56,0.00,,,0.00,WUHU21636XXSP,2013-01-24 16:34:00,
2013-01-24 10:39:00,4.4,-7.8,30.60,ESE,112,0.0,0.0,56,0.00,,,0.00,WUHU21636XXSP,2013-01-24 16:39:00,
2013-01-24 10:44:00,5.0,-7.2,30.60,ESE,112,0.0,0.0,56,0.00,,,0.00,WUHU21636XXSP,2013-01-24 16:44:00,
2013-01-24 10:49:00,5.4,-7.7,30.60,ESE,112,0.0,0.0,54,0.00,,,0.00,WUHU21636XXSP,2013-01-24 16:49:00,
2013-01-24 10:54:00,5.0,-8.4,30.60,ESE,112,0.0,0.0,53,0.00,,,0.00,WUHU21636XXSP,2013-01-24 16:54:00,
2013-01-24 10:59:00,4.8,-7.8,30.60,ESE,112,0.0,0.0,55,0.00,,,0.00,WUHU21636XXSP,2013-01-24 16:59:00,
2013-01-24 11:04:00,5.4,-8.1,30.60,ESE,112,0.0,0.0,53,0.00,,,0.00,WUHU21636XXSP,2013-01-24 17:04:00,
2013-01-24 11:09:00,6.0,-6.7,30.60,ESE,112,0.0,0.0,55,0.00,,,0.00,WUHU21636XXSP,2013-01-24 17:09:00,
2013-01-24 11:14:00,6.7,-6.8,30.60,ESE,112,0.0,0.0,53,0.00,,,0.00,WUHU21636XXSP,2013-01-24 17:14:00,
2013-01-24 11:19:00,7.2,-5.9,30.59,ESE,112,0.0,0.0,54,0.00,,,0.00,WUHU21636XXSP,2013-01-24 17:19:00,
2013-01-24 11:24:00,7.7,-5.5,30.59,ESE,112,0.0,0.0,54,0.00,,,0.00,WUHU21636XXSP,2013-01-24 17:24:00,
2013-01-24 11:29:00,8.1,-6.0,30.59,ESE,112,0.0,0.0,52,0.00,,,0.00,WUHU21636XXSP,2013-01-24 17:29:00,
2013-01-24 11:34:00,8.4,-5.7,30.59,ESE,112,0.0,0.0,52,0.00,,,0.00,WUHU21636XXSP,2013-01-24 17:34:00,
2013-01-24 11:39:00,9.1,-5.4,30.58,SSE,157,0.0,0.0,51,0.00,,,0.00,WUHU21636XXSP,2013-01-24 17:39:00,
2013-01-24 11:44:00,9.3,-6.0,30.58,SSE,157,0.0,0.0,49,0.00,,,0.00,WUHU21636XXSP,2013-01-24 17:44:00,
2013-01-24 11:49:00,9.1,-6.2,30.58,SSE,157,0.0,0.0,49,0.00,,,0.00,WUHU21636XXSP,2013-01-24 17:49:00,
2013-01-24 11:54:00,9.3,-5.2,30.58,SSW,202,0.0,0.0,51,0.00,,,0.00,WUHU21636XXSP,2013-01-24 17:54:00,
2013-01-24 11:59:00,9.8,-5.7,30.58,South,180,0.0,0.0,49,0.00,,,0.00,WUHU21636XXSP,2013-01-24 17:59:00,
2013-01-24 12:04:00,9.8,-5.7,30.58,SSW,202,0.0,0.0,49,0.00,,,0.00,WUHU21636XXSP,2013-01-24 18:04:00,
2013-01-24 12:09:00,10.1,-4.9,30.57,ENE,67,0.0,0.0,50,0.00,,,0.00,WUHU21636XXSP,2013-01-24 18:09:00,
2013-01-24 12:14:00,10.0,-5.5,30.57,North,0,0.0,0.0,49,0.00,,,0.00,WUHU21636XXSP,2013-01-24 18:14:00,
2013-01-24 12:19:00,10.1,-5.4,30.56,North,0,0.0,0.0,49,0.00,,,0.00,WUHU21636XXSP,2013-01-24 18:19:00,
2013-01-24 12:24:00,9.8,-5.7,30.55,South,180,0.0,0.0,49,0.00,,,0.00,WUHU21636XXSP,2013-01-24 18:24:00,
2013-01-24 12:29:00,9.3,-6.0,30.55,ESE,112,0.0,0.0,49,0.00,,,0.00,WUHU21636XXSP,2013-01-24 18:29:00,
2013-01-24 12:34:00,9.8,-5.2,30.54,ESE,112,0.0,0.0,50,0.00,,,0.00,WUHU21636XXSP,2013-01-24 18:34:00,
2013-01-24 12:39:00,10.1,-4.5,30.54,SE,135,0.0,0.0,51,0.00,,,0.00,WUHU21636XXSP,2013-01-24 18:39:00,
2013-01-24 12:44:00,10.3,-5.6,30.54,SE,135,0.0,0.0,48,0.00,,,0.00,WUHU21636XXSP,2013-01-24 18:44:00,
2013-01-24 12:49:00,10.1,-5.4,30.53,SE,135,0.0,0.0,49,0.00,,,0.00,WUHU21636XXSP,2013-01-24 18:49:00,
2013-01-24 12:54:00,10.1,-5.4,30.53,East,90,0.0,0.0,49,0.00,,,0.00,WUHU21636XXSP,2013-01-24 18:54:00,
2013-01-24 12:59:00,10.3,-4.7,30.53,ESE,112,0.0,0.0,50,0.00,,,0.00,WUHU21636XXSP,2013-01-24 18:59:00,
2013-01-24 13:04:00,10.5,-5.0,30.53,ESE,112,0.0,0.0,49,0.00,,,0.00,WUHU21636XXSP,2013-01-24 19:04:00,
2013-01-24 13:09:00,10.7,-4.8,30.53,SE,135,0.0,0.0,49,0.00,,,0.00,WUHU21636XXSP,2013-01-24 19:09:00,
2013-01-24 13:14:00,10.1,-5.8,30.53,SSW,202,0.0,0.0,48,0.00,,,0.00,WUHU21636XXSP,2013-01-24 19:14:00,
2013-01-24 13:19:00,10.1,-5.4,30.53,SSW,202,0.0,0.0,49,0.00,,,0.00,WUHU21636XXSP,2013-01-24 19:19:00,
2013-01-24 13:24:00,10.3,-4.7,30.53,South,180,0.0,0.0,50,0.00,,,0.00,WUHU21636XXSP,2013-01-24 19:24:00,
2013-01-24 13:29:00,11.0,-4.1,30.52,South,180,0.0,0.0,50,0.00,,,0.00,WUHU21636XXSP,2013-01-24 19:29:00,
2013-01-24 13:34:00,11.7,-3.5,30.52,South,180,0.0,0.0,50,0.00,,,0.00,WUHU21636XXSP,2013-01-24 19:34:00,
2013-01-24 13:39:00,12.0,-4.1,30.51,South,180,0.0,0.0,48,0.00,,,0.00,WUHU21636XXSP,2013-01-24 19:39:00,
2013-01-24 13:44:00,12.4,-3.2,30.51,SW,225,0.0,0.0,49,0.00,,,0.00,WUHU21636XXSP,2013-01-24 19:44:00,
2013-01-24 13:49:00,12.4,-3.7,30.51,SSE,157,0.0,0.0,48,0.00,,,0.00,WUHU21636XXSP,2013-01-24 19:49:00,
2013-01-24 13:54:00,12.4,-3.7,30.51,SSE,157,0.0,0.0,48,0.00,,,0.00,WUHU21636XXSP,2013-01-24 19:54:00,
2013-01-24 13:59:00,12.0,-4.5,30.51,SE,135,0.0,0.0,47,0.00,,,0.00,WUHU21636XXSP,2013-01-24 19:59:00,
2013-01-24 14:04:00,12.0,-4.1,30.51,SE,135,0.0,0.0,48,0.00,,,0.00,WUHU21636XXSP,2013-01-24 20:04:00,
2013-01-24 14:09:00,11.9,-4.6,30.51,SSE,157,0.0,0.0,47,0.00,,,0.00,WUHU21636XXSP,2013-01-24 20:09:00,
2013-01-24 14:14:00,11.7,-4.8,30.50,ESE,112,0.0,0.0,47,0.00,,,0.00,WUHU21636XXSP,2013-01-24 20:14:00,
2013-01-24 14:19:00,11.9,-4.2,30.50,ESE,112,0.0,0.0,48,0.00,,,0.00,WUHU21636XXSP,2013-01-24 20:19:00,
2013-01-24 14:24:00,12.0,-4.1,30.50,ESE,112,0.0,0.0,48,0.00,,,0.00,WUHU21636XXSP,2013-01-24 20:24:00,
2013-01-24 14:30:00,12.0,-3.6,30.49,ENE,67,0.0,0.0,49,0.00,,,0.00,WUHU21636XXSP,2013-01-24 20:30:00,
2013-01-24 14:35:00,11.9,-4.2,30.49,SE,135,0.0,0.0,48,0.00,,,0.00,WUHU21636XXSP,2013-01-24 20:35:00,
2013-01-24 14:40:00,12.0,-3.6,30.49,ENE,67,0.0,0.0,49,0.00,,,0.00,WUHU21636XXSP,2013-01-24 20:40:00,
2013-01-24 14:45:00,11.9,-3.7,30.49,SW,225,0.0,0.0,49,0.00,,,0.00,WUHU21636XXSP,2013-01-24 20:45:00,
2013-01-24 14:50:00,11.9,-4.2,30.49,East,90,0.0,0.0,48,0.00,,,0.00,WUHU21636XXSP,2013-01-24 20:50:00,
2013-01-24 14:55:00,11.2,-4.3,30.48,ESE,112,0.0,0.0,49,0.00,,,0.00,WUHU21636XXSP,2013-01-24 20:55:00,
2013-01-24 15:00:00,11.2,-4.3,30.49,East,90,0.0,0.0,49,0.00,,,0.00,WUHU21636XXSP,2013-01-24 21:00:00,
2013-01-24 15:05:00,11.7,-3.0,30.49,ESE,112,0.0,0.0,51,0.00,,,0.00,WUHU21636XXSP,2013-01-24 21:05:00,
2013-01-24 15:10:00,11.7,-3.9,30.48,ENE,67,0.0,0.0,49,0.00,,,0.00,WUHU21636XXSP,2013-01-24 21:10:00,
2013-01-24 15:15:00,11.7,-3.5,30.48,East,90,0.0,0.0,50,0.00,,,0.00,WUHU21636XXSP,2013-01-24 21:15:00,
2013-01-24 15:20:00,11.7,-3.0,30.48,SE,135,0.0,0.0,51,0.00,,,0.00,WUHU21636XXSP,2013-01-24 21:20:00,
2013-01-24 15:25:00,12.0,-2.8,30.48,SE,135,0.0,0.0,51,0.00,,,0.00,WUHU21636XXSP,2013-01-24 21:25:00,
2013-01-24 15:30:00,12.4,-2.4,30.47,SE,135,0.0,0.0,51,0.00,,,0.00,WUHU21636XXSP,2013-01-24 21:30:00,
2013-01-24 15:35:00,12.6,-2.2,30.46,SE,135,0.0,0.0,51,0.00,,,0.00,WUHU21636XXSP,2013-01-24 21:35:00,
2013-01-24 15:40:00,12.6,-2.2,30.46,SE,135,0.0,0.0,51,0.00,,,0.00,WUHU21636XXSP,2013-01-24 21:40:00,
2013-01-24 15:45:00,12.6,-2.2,30.46,SE,135,0.0,0.0,51,0.00,,,0.00,WUHU21636XXSP,2013-01-24 21:45:00,
2013-01-24 15:50:00,12.4,-2.4,30.46,SE,135,0.0,0.0,51,0.00,,,0.00,WUHU21636XXSP,2013-01-24 21:50:00,
2013-01-24 15:55:00,12.2,-2.6,30.45,SE,135,0.0,0.0,51,0.00,,,0.00,WUHU21636XXSP,2013-01-24 21:55:00,
2013-01-24 16:00:00,12.0,-2.8,30.44,SE,135,0.0,0.0,51,0.00,,,0.00,WUHU21636XXSP,2013-01-24 22:00:00,
2013-01-24 16:05:00,12.2,-2.6,30.44,SE,135,0.0,0.0,51,0.00,,,0.00,WUHU21636XXSP,2013-01-24 22:05:00,
2013-01-24 16:10:00,12.2,-2.6,30.44,SE,135,0.0,0.0,51,0.00,,,0.00,WUHU21636XXSP,2013-01-24 22:10:00,
2013-01-24 16:15:00,12.2,-2.6,30.44,SE,135,0.0,0.0,51,0.00,,,0.00,WUHU21636XXSP,2013-01-24 22:15:00,
2013-01-24 16:20:00,12.0,-2.8,30.43,SE,135,0.0,0.0,51,0.00,,,0.00,WUHU21636XXSP,2013-01-24 22:20:00,
2013-01-24 16:25:00,12.0,-2.8,30.43,SE,135,0.0,0.0,51,0.00,,,0.00,WUHU21636XXSP,2013-01-24 22:25:00,
2013-01-24 16:30:00,11.9,-2.9,30.43,SSE,157,0.0,0.0,51,0.00,,,0.00,WUHU21636XXSP,2013-01-24 22:30:00,
2013-01-24 16:35:00,11.9,-2.9,30.43,SSE,157,0.0,0.0,51,0.00,,,0.00,WUHU21636XXSP,2013-01-24 22:35:00,
2013-01-24 16:40:00,11.9,-2.9,30.42,SE,135,0.0,0.0,51,0.00,,,0.00,WUHU21636XXSP,2013-01-24 22:40:00,
2013-01-24 16:45:00,11.7,-2.6,30.41,SE,135,0.0,0.0,52,0.00,,,0.00,WUHU21636XXSP,2013-01-24 22:45:00,
2013-01-24 16:50:00,11.7,-3.0,30.41,SE,135,0.0,0.0,51,0.00,,,0.00,WUHU21636XXSP,2013-01-24 22:50:00,
2013-01-24 16:55:00,11.7,-3.0,30.41,SE,135,0.0,0.0,51,0.00,,,0.00,WUHU21636XXSP,2013-01-24 22:55:00,
2013-01-24 17:00:00,11.7,-3.0,30.40,SE,135,0.0,0.0,51,0.00,,,0.00,WUHU21636XXSP,2013-01-24 23:00:00,
2013-01-24 17:05:00,11.4,-2.8,30.40,ESE,112,0.0,0.0,52,0.00,,,0.00,WUHU21636XXSP,2013-01-24 23:05:00,
2013-01-24 17:10:00,11.4,-2.8,30.39,ESE,112,0.0,0.0,52,0.00,,,0.00,WUHU21636XXSP,2013-01-24 23:10:00,
2013-01-24 17:15:00,11.4,-2.8,30.39,ESE,112,0.0,0.0,52,0.00,,,0.00,WUHU21636XXSP,2013-01-24 23:15:00,
2013-01-24 17:20:00,11.4,-2.4,30.38,ESE,112,0.0,0.0,53,0.00,,,0.00,WUHU21636XXSP,2013-01-24 23:20:00,
2013-01-24 17:25:00,11.7,-2.6,30.38,ENE,67,0.0,0.0,52,0.00,,,0.00,WUHU21636XXSP,2013-01-24 23:25:00,
2013-01-24 17:30:00,11.7,-2.2,30.39,ENE,67,0.0,0.0,53,0.00,,,0.00,WUHU21636XXSP,2013-01-24 23:30:00,
2013-01-24 17:35:00,11.7,-2.2,30.38,ENE,67,0.0,0.0,53,0.00,,,0.00,WUHU21636XXSP,2013-01-24 23:35:00,
2013-01-24 17:40:00,11.7,-2.2,30.38,ENE,67,0.0,0.0,53,0.00,,,0.00,WUHU21636XXSP,2013-01-24 23:40:00,
2013-01-24 17:45:00,11.7,-2.6,30.38,ENE,67,0.0,0.0,52,0.00,,,0.00,WUHU21636XXSP,2013-01-24 23:45:00,
2013-01-24 17:50:00,11.4,-2.0,30.38,ENE,67,0.0,0.0,54,0.00,,,0.00,WUHU21636XXSP,2013-01-24 23:50:00,
2013-01-24 17:55:00,11.7,-1.8,30.38,ENE,67,0.0,0.0,54,0.00,,,0.00,WUHU21636XXSP,2013-01-24 23:55:00,
2013-01-24 18:01:00,11.7,-2.2,30.38,ENE,67,0.0,0.0,53,0.00,,,0.00,WUHU21636XXSP,2013-01-25 00:01:00,
2013-01-24 18:06:00,11.7,-1.8,30.38,ENE,67,0.0,0.0,54,0.00,,,0.00,WUHU21636XXSP,2013-01-25 00:06:00,
2013-01-24 18:11:00,11.7,-2.2,30.38,ENE,67,0.0,0.0,53,0.00,,,0.00,WUHU21636XXSP,2013-01-25 00:11:00,
2013-01-24 18:16:00,11.7,-1.8,30.37,ENE,67,0.0,0.0,54,0.00,,,0.00,WUHU21636XXSP,2013-01-25 00:16:00,
2013-01-24 18:21:00,11.7,-1.8,30.37,ENE,67,0.0,0.0,54,0.00,,,0.00,WUHU21636XXSP,2013-01-25 00:21:00,
2013-01-24 18:26:00,11.7,-2.2,30.38,ENE,67,0.0,0.0,53,0.00,,,0.00,WUHU21636XXSP,2013-01-25 00:26:00,
2013-01-24 18:31:00,11.7,-2.2,30.37,South,180,0.0,0.0,53,0.00,,,0.00,WUHU21636XXSP,2013-01-25 00:31:00,
2013-01-24 18:36:00,11.2,-2.2,30.37,South,180,0.0,0.0,54,0.00,,,0.00,WUHU21636XXSP,2013-01-25 00:36:00,
2013-01-24 18:41:00,11.4,-2.0,30.37,SE,135,0.0,0.0,54,0.00,,,0.00,WUHU21636XXSP,2013-01-25 00:41:00,
2013-01-24 18:46:00,11.4,-2.0,30.37,SE,135,0.0,0.0,54,0.00,,,0.00,WUHU21636XXSP,2013-01-25 00:46:00,
2013-01-24 18:51:00,11.4,-2.0,30.37,SSE,157,0.0,0.0,54,0.00,,,0.00,WUHU21636XXSP,2013-01-25 00:51:00,
2013-01-24 18:56:00,11.4,-2.4,30.37,SSE,157,0.0,0.0,53,0.00,,,0.00,WUHU21636XXSP,2013-01-25 00:56:00,
2013-01-24 19:01:00,11.4,-2.0,30.37,SSE,157,0.0,0.0,54,0.00,,,0.00,WUHU21636XXSP,2013-01-25 01:01:00,
2013-01-24 19:06:00,11.4,-2.0,30.37,SSE,157,0.0,0.0,54,0.00,,,0.00,WUHU21636XXSP,2013-01-25 01:06:00,
2013-01-24 19:11:00,11.4,-2.0,30.37,East,90,0.0,0.0,54,0.00,,,0.00,WUHU21636XXSP,2013-01-25 01:11:00,
2013-01-24 19:16:00,11.4,-2.0,30.37,SE,135,0.0,0.0,54,0.00,,,0.00,WUHU21636XXSP,2013-01-25 01:16:00,
2013-01-24 19:21:00,11.4,-2.0,30.37,SE,135,0.0,0.0,54,0.00,,,0.00,WUHU21636XXSP,2013-01-25 01:21:00,
2013-01-24 19:26:00,11.2,-2.2,30.36,ENE,67,0.0,0.0,54,0.00,,,0.00,WUHU21636XXSP,2013-01-25 01:26:00,
2013-01-24 19:31:00,11.2,-2.2,30.36,ENE,67,0.0,0.0,54,0.00,,,0.00,WUHU21636XXSP,2013-01-25 01:31:00,
2013-01-24 19:36:00,11.4,-1.6,30.35,ENE,67,0.0,0.0,55,0.00,,,0.00,WUHU21636XXSP,2013-01-25 01:36:00,
2013-01-24 19:41:00,11.7,-1.4,30.35,SSE,157,0.0,0.0,55,0.00,,,0.00,WUHU21636XXSP,2013-01-25 01:41:00,
2013-01-24 19:46:00,11.2,-1.8,30.36,ESE,112,0.0,0.0,55,0.00,,,0.00,WUHU21636XXSP,2013-01-25 01:46:00,
2013-01-24 19:51:00,11.0,-2.4,30.35,ENE,67,0.0,0.0,54,0.00,,,0.00,WUHU21636XXSP,2013-01-25 01:51:00,
2013-01-24 19:56:00,11.0,-2.4,30.35,SE,135,0.0,0.0,54,0.00,,,0.00,WUHU21636XXSP,2013-01-25 01:56:00,
2013-01-24 20:01:00,11.0,-2.4,30.35,NE,45,0.0,0.0,54,0.00,,,0.00,WUHU21636XXSP,2013-01-25 02:01:00,
2013-01-24 20:06:00,10.9,-2.5,30.34,ESE,112,0.0,0.0,54,0.00,,,0.00,WUHU21636XXSP,2013-01-25 02:06:00,
2013-01-24 20:11:00,10.9,-2.5,30.33,ESE,112,0.0,0.0,54,0.00,,,0.00,WUHU21636XXSP,2013-01-25 02:11:00,
2013-01-24 20:16:00,11.0,-2.0,30.32,ESE,112,0.0,0.0,55,0.00,,,0.00,WUHU21636XXSP,2013-01-25 02:16:00,
2013-01-24 20:21:00,11.0,-1.6,30.31,SE,135,0.0,0.0,56,0.00,,,0.00,WUHU21636XXSP,2013-01-25 02:21:00,
2013-01-24 20:26:00,10.9,-2.1,30.31,ESE,112,0.0,0.0,55,0.00,,,0.00,WUHU21636XXSP,2013-01-25 02:26:00,
2013-01-24 20:31:00,10.7,-1.9,30.31,ENE,67,0.0,0.0,56,0.00,,,0.00,WUHU21636XXSP,2013-01-25 02:31:00,
2013-01-24 20:36:00,10.7,-1.9,30.30,ESE,112,0.0,0.0,56,0.00,,,0.00,WUHU21636XXSP,2013-01-25 02:36:00,
2013-01-24 20:41:00,10.7,-2.3,30.30,ENE,67,0.0,0.0,55,0.00,,,0.00,WUHU21636XXSP,2013-01-25 02:41:00,
2013-01-24 20:46:00,10.7,-1.9,30.29,ENE,67,0.0,0.0,56,0.00,,,0.00,WUHU21636XXSP,2013-01-25 02:46:00,
2013-01-24 20:51:00,10.7,-1.9,30.30,East,90,0.0,0.0,56,0.00,,,0.00,WUHU21636XXSP,2013-01-25 02:51:00,
2013-01-24 20:56:00,10.9,-2.1,30.30,SSE,157,0.0,0.0,55,0.00,,,0.00,WUHU21636XXSP,2013-01-25 02:56:00,
2013-01-24 21:01:00,10.9,-1.7,30.30,SSE,157,0.0,0.0,56,0.00,,,0.00,WUHU21636XXSP,2013-01-25 03:01:00,
2013-01-24 21:06:00,11.0,-2.0,30.30,ESE,112,0.0,0.0,55,0.00,,,0.00,WUHU21636XXSP,2013-01-25 03:06:00,
2013-01-24 21:11:00,11.0,-1.6,30.29,ESE,112,0.0,0.0,56,0.00,,,0.00,WUHU21636XXSP,2013-01-25 03:11:00,
2013-01-24 21:16:00,11.0,-1.2,30.28,ESE,112,0.0,0.0,57,0.00,,,0.00,WUHU21636XXSP,2013-01-25 03:16:00,
2013-01-24 21:21:00,11.2,-1.0,30.28,ESE,112,0.0,0.0,57,0.00,,,0.00,WUHU21636XXSP,2013-01-25 03:21:00,
2013-01-24 21:26:00,11.2,-1.4,30.28,South,180,0.0,0.0,56,0.00,,,0.00,WUHU21636XXSP,2013-01-25 03:26:00,
2013-01-24 21:31:00,11.2,-1.0,30.29,SSE,157,0.0,0.0,57,0.00,,,0.00,WUHU21636XXSP,2013-01-25 03:31:00,
2013-01-24 21:36:00,11.4,-0.8,30.29,ESE,112,0.0,0.0,57,0.00,,,0.00,WUHU21636XXSP,2013-01-25 03:36:00,
2013-01-24 21:41:00,11.4,-1.2,30.29,SSE,157,0.0,0.0,56,0.00,,,0.00,WUHU21636XXSP,2013-01-25 03:41:00,
2013-01-24 21:46:00,11.2,-1.0,30.28,East,90,0.0,0.0,57,0.00,,,0.00,WUHU21636XXSP,2013-01-25 03:46:00,
2013-01-24 21:51:00,11.2,-1.0,30.28,SSE,157,0.0,0.0,57,0.00,,,0.00,WUHU21636XXSP,2013-01-25 03:51:00,
2013-01-24 21:56:00,11.2,-1.0,30.28,ESE,112,0.0,0.0,57,0.00,,,0.00,WUHU21636XXSP,2013-01-25 03:56:00,
2013-01-24 22:01:00,11.2,-1.0,30.28,NE,45,0.0,0.0,57,0.00,,,0.00,WUHU21636XXSP,2013-01-25 04:01:00,
2013-01-24 22:06:00,11.2,-1.0,30.28,NE,45,0.0,0.0,57,0.00,,,0.00,WUHU21636XXSP,2013-01-25 04:06:00,
2013-01-24 22:11:00,11.4,-0.8,30.28,NNE,22,0.0,0.0,57,0.00,,,0.00,WUHU21636XXSP,2013-01-25 04:11:00,
2013-01-24 22:16:00,11.2,-1.0,30.28,NNE,22,0.0,0.0,57,0.00,,,0.00,WUHU21636XXSP,2013-01-25 04:16:00,
2013-01-24 22:21:00,11.4,-0.5,30.28,ESE,112,0.0,0.0,58,0.00,,,0.00,WUHU21636XXSP,2013-01-25 04:21:00,
2013-01-24 22:26:00,11.4,-0.5,30.28,ESE,112,0.0,0.0,58,0.00,,,0.00,WUHU21636XXSP,2013-01-25 04:26:00,
2013-01-24 22:31:00,11.9,-0.1,30.27,East,90,0.0,0.0,58,0.00,,,0.00,WUHU21636XXSP,2013-01-25 04:31:00,
2013-01-24 22:36:00,12.0,0.0,30.27,ENE,67,0.0,0.0,58,0.00,,,0.00,WUHU21636XXSP,2013-01-25 04:36:00,
2013-01-24 22:41:00,12.0,0.0,30.27,ENE,67,0.0,0.0,58,0.00,,,0.00,WUHU21636XXSP,2013-01-25 04:41:00,
2013-01-24 22:46:00,12.0,0.0,30.27,ENE,67,0.0,0.0,58,0.00,,,0.00,WUHU21636XXSP,2013-01-25 04:46:00,
2013-01-24 22:51:00,12.0,0.0,30.26,ENE,67,0.0,0.0,58,0.00,,,0.00,WUHU21636XXSP,2013-01-25 04:51:00,
2013-01-24 22:56:00,12.0,0.4,30.26,ENE,67,0.0,0.0,59,0.00,,,0.00,WUHU21636XXSP,2013-01-25 04:56:00,
2013-01-24 23:01:00,12.2,0.2,30.26,ENE,67,0.0,0.0,58,0.00,,,0.00,WUHU21636XXSP,2013-01-25 05:01:00,
2013-01-24 23:02:00,12.2,0.6,30.26,ESE,112,0.0,0.0,59,0.00,,,0.00,WUHU21636XXSP,2013-01-25 05:02:00,
2013-01-24 23:03:00,12.2,0.6,30.26,ESE,112,0.0,0.0,59,0.00,,,0.00,WUHU21636XXSP,2013-01-25 05:03:00,
2013-01-24 23:08:00,12.0,0.0,30.25,NNE,22,0.0,0.0,58,0.00,,,0.00,WUHU21636XXSP,2013-01-25 05:08:00,
2013-01-24 23:13:00,12.0,0.0,30.25,WSW,247,0.0,0.0,58,0.00,,,0.00,WUHU21636XXSP,2013-01-25 05:13:00,
2013-01-24 23:18:00,12.0,0.0,30.25,ENE,67,0.0,0.0,58,0.00,,,0.00,WUHU21636XXSP,2013-01-25 05:18:00,
2013-01-24 23:23:00,12.4,0.4,30.24,East,90,0.0,0.0,58,0.00,,,0.00,WUHU21636XXSP,2013-01-25 05:23:00,
2013-01-24 23:28:00,12.4,0.4,30.24,ESE,112,0.0,0.0,58,0.00,,,0.00,WUHU21636XXSP,2013-01-25 05:28:00,
2013-01-24 23:33:00,12.2,0.6,30.25,NE,45,0.0,0.0,59,0.00,,,0.00,WUHU21636XXSP,2013-01-25 05:33:00,
2013-01-24 23:38:00,12.2,0.6,30.24,ENE,67,0.0,0.0,59,0.00,,,0.00,WUHU21636XXSP,2013-01-25 05:38:00,
2013-01-24 23:43:00,12.4,0.8,30.25,ESE,112,0.0,0.0,59,0.00,,,0.00,WUHU21636XXSP,2013-01-25 05:43:00,
2013-01-24 23:48:00,12.2,0.6,30.25,ESE,112,0.0,0.0,59,0.00,,,0.00,WUHU21636XXSP,2013-01-25 05:48:00,
2013-01-24 23:53:00,12.6,1.4,30.24,ENE,67,0.0,0.0,60,0.00,,,0.00,WUHU21636XXSP,2013-01-25 05:53:00,
2013-01-24 23:58:00,12.4,1.2,30.24,ESE,112,0.0,0.0,60,0.00,,,0.00,WUHU21636XXSP,2013-01-25 05:58:00,